Terminal Aerodrome Forecast
Issued by NWS Twin Cities, MN

Home | Current Version | Previous Version | Text Only | Print | Product List | Glossary Off
Versions: 1 2 3 4 5 6 7 8 9 10 11 12 13 14

000
FTUS43 KMPX 181100
TAFSTC
TAF
KSTC 181120Z 1812/1912 34007KT P6SM BKN025
     FM181900 VRB03KT P6SM SCT025
     FM190000 17004KT P6SM FEW250
     FM190900 16005KT P6SM BKN120=

USA.gov is the U.S. government's official web portal to all federal, state and local government web resources and services.